createdAt,value
2022-11-20T00:01:28.834Z,100772.50
2022-11-20T00:04:01.526Z,100760.13
2022-11-20T00:06:34.578Z,100784.56
2022-11-20T00:09:06.311Z,100762.94
2022-11-20T00:11:36.236Z,100768.94
2022-11-20T00:14:06.154Z,100748.81
2022-11-20T00:16:38.634Z,100748.06
2022-11-20T00:19:09.485Z,100775.31
2022-11-20T00:21:40.321Z,100759.25
2022-11-20T00:24:14.420Z,100775.00
2022-11-20T00:26:44.268Z,100771.88
2022-11-20T00:29:15.345Z,100766.75
2022-11-20T00:31:48.837Z,100736.25
2022-11-20T00:34:27.055Z,100767.44
2022-11-20T00:36:56.957Z,100756.75
2022-11-20T00:39:30.310Z,100771.00
2022-11-20T00:42:02.184Z,100758.25
2022-11-20T00:44:35.398Z,100759.38
2022-11-20T00:47:10.989Z,100733.81
2022-11-20T00:49:42.781Z,100776.13
2022-11-20T00:52:19.268Z,100760.25
2022-11-20T00:54:52.381Z,100731.44
2022-11-20T00:57:23.158Z,100750.16
2022-11-20T00:59:53.003Z,100745.13
2022-11-20T01:02:25.389Z,100756.88
2022-11-20T01:04:55.198Z,100759.06
2022-11-20T01:07:25.050Z,100727.44
2022-11-20T01:09:55.923Z,100754.50
2022-11-20T01:12:29.394Z,100760.81
2022-11-20T01:14:59.267Z,100753.88
2022-11-20T01:17:31.631Z,100748.44
2022-11-20T01:20:01.472Z,100754.75
2022-11-20T01:22:32.365Z,100711.94
2022-11-20T01:25:02.154Z,100768.44
2022-11-20T01:27:32.080Z,100762.75
2022-11-20T01:30:03.940Z,100750.06
2022-11-20T01:32:36.364Z,100752.75
2022-11-20T01:35:10.658Z,100748.94
2022-11-20T01:37:44.410Z,100701.50
2022-11-20T01:40:15.584Z,100744.94
2022-11-20T01:43:08.038Z,100741.25
2022-11-20T01:46:07.140Z,100721.94
2022-11-20T01:48:50.799Z,100737.56
2022-11-20T01:51:29.348Z,100742.25
2022-11-20T01:54:02.958Z,100737.56
2022-11-20T01:56:35.381Z,100733.63
2022-11-20T01:59:09.614Z,100729.31
2022-11-20T02:01:43.509Z,100721.56
2022-11-20T02:04:18.129Z,100713.63
2022-11-20T02:06:51.998Z,100721.81
2022-11-20T02:09:25.320Z,100710.06
2022-11-20T02:11:57.695Z,100692.88
2022-11-20T02:14:25.911Z,100713.63
2022-11-20T02:16:58.995Z,100657.16
2022-11-20T02:19:34.444Z,100698.44
2022-11-20T02:22:09.375Z,100705.63
2022-11-20T02:24:45.382Z,100710.38
2022-11-20T02:27:20.790Z,100714.19
2022-11-20T02:29:55.642Z,100711.06
2022-11-20T02:32:31.550Z,100705.31
2022-11-20T02:35:10.472Z,100710.06
2022-11-20T02:37:43.855Z,100688.69
2022-11-20T02:40:17.025Z,100704.00
2022-11-20T02:42:51.383Z,100682.25
2022-11-20T02:45:21.394Z,100699.13
2022-11-20T02:47:51.262Z,100709.31
2022-11-20T02:50:22.054Z,100702.78
2022-11-20T02:52:51.834Z,100633.72
2022-11-20T02:55:24.294Z,100707.47
2022-11-20T02:57:57.403Z,100697.59
2022-11-20T03:00:27.206Z,100706.41
2022-11-20T03:02:57.041Z,100674.97
2022-11-20T03:05:26.855Z,100688.91
2022-11-20T03:07:56.641Z,100670.97
2022-11-20T03:10:29.051Z,100670.13
2022-11-20T03:12:59.524Z,100685.63
2022-11-20T03:15:29.297Z,100673.06
2022-11-20T03:17:59.353Z,100650.66
2022-11-20T03:20:29.114Z,100666.63
2022-11-20T03:22:58.944Z,100678.69
2022-11-20T03:25:31.370Z,100607.66
2022-11-20T03:28:01.146Z,100656.97
2022-11-20T03:30:31.141Z,100650.88
2022-11-20T03:33:01.205Z,100663.91
2022-11-20T03:35:30.964Z,100642.09
2022-11-20T03:38:01.506Z,100661.75
2022-11-20T03:40:33.836Z,100658.69
2022-11-20T03:43:03.650Z,100670.00
2022-11-20T03:45:33.425Z,100656.63
2022-11-20T03:48:03.170Z,100667.19
2022-11-20T03:50:32.918Z,100662.19
2022-11-20T03:53:02.697Z,100662.19
2022-11-20T03:55:35.050Z,100612.91
2022-11-20T03:58:04.822Z,100640.78
2022-11-20T04:00:34.609Z,100652.19
2022-11-20T04:03:04.638Z,100654.81
2022-11-20T04:05:34.423Z,100508.91
2022-11-20T04:08:04.323Z,100625.47
2022-11-20T04:10:39.102Z,100664.56
2022-11-20T04:13:08.859Z,100647.59
2022-11-20T04:15:38.752Z,100663.03
2022-11-20T04:18:08.753Z,100657.41
2022-11-20T04:20:39.059Z,100669.97
2022-11-20T04:23:08.812Z,100666.09
2022-11-20T04:25:41.157Z,100664.56
2022-11-20T04:28:10.946Z,100654.81
2022-11-20T04:30:40.787Z,100641.31
2022-11-20T04:33:10.560Z,100640.66
2022-11-20T04:35:41.155Z,100654.13
2022-11-20T04:38:11.098Z,100618.72
2022-11-20T04:40:43.422Z,100638.06
2022-11-20T04:43:13.191Z,100652.84
2022-11-20T04:45:42.929Z,100623.09
2022-11-20T04:48:12.731Z,100634.25
2022-11-20T04:50:44.018Z,100628.34
2022-11-20T04:53:13.805Z,100624.59
2022-11-20T04:55:46.278Z,100629.56
2022-11-20T04:58:16.426Z,100615.09
2022-11-20T05:00:46.226Z,100627.59
2022-11-20T05:03:16.018Z,100623.72
2022-11-20T05:05:45.780Z,100640.53
2022-11-20T05:08:15.523Z,100641.28
2022-11-20T05:10:47.863Z,100642.31
2022-11-20T05:13:17.633Z,100637.56
2022-11-20T05:15:47.514Z,100603.72
2022-11-20T05:18:17.394Z,100627.09
2022-11-20T05:20:47.195Z,100629.06
2022-11-20T05:23:16.960Z,100590.06
2022-11-20T05:25:54.605Z,100611.72
2022-11-20T05:28:27.757Z,100614.09
2022-11-20T05:30:57.690Z,100634.59
2022-11-20T05:33:27.417Z,100614.81
2022-11-20T05:36:01.494Z,100622.09
2022-11-20T05:38:31.246Z,100635.34
2022-11-20T05:41:10.600Z,100633.75
2022-11-20T05:43:41.684Z,100621.56
2022-11-20T05:46:13.565Z,100631.78
2022-11-20T05:48:45.095Z,100623.97
2022-11-20T05:51:17.157Z,100626.22
2022-11-20T05:53:48.752Z,100636.94
2022-11-20T05:56:23.110Z,100634.94
2022-11-20T05:58:53.612Z,100631.47
2022-11-20T06:01:25.498Z,100636.19
2022-11-20T06:03:56.934Z,100629.25
2022-11-20T06:06:27.006Z,100626.47
2022-11-20T06:08:56.804Z,100615.16
2022-11-20T06:11:29.284Z,100618.44
2022-11-20T06:13:59.104Z,100615.44
2022-11-20T06:16:29.274Z,100604.84
2022-11-20T06:18:59.086Z,100603.84
2022-11-20T06:21:28.915Z,100599.47
2022-11-20T06:23:58.695Z,100605.09
2022-11-20T06:26:31.323Z,100587.59
2022-11-20T06:29:01.179Z,100602.22
2022-11-20T06:31:33.780Z,100602.69
2022-11-20T06:34:03.546Z,100612.34
2022-11-20T06:36:33.305Z,100592.81
2022-11-20T06:39:03.148Z,100607.66
2022-11-20T06:41:35.479Z,100600.41
2022-11-20T06:44:07.043Z,100591.06
2022-11-20T06:46:36.773Z,100589.91
2022-11-20T06:49:06.946Z,100599.06
2022-11-20T06:51:36.682Z,100603.38
2022-11-20T06:54:06.493Z,100586.94
2022-11-20T06:56:38.846Z,100595.16
2022-11-20T06:59:09.286Z,100592.78
2022-11-20T07:01:39.062Z,100568.09
2022-11-20T07:04:08.965Z,100586.34
2022-11-20T07:06:38.725Z,100565.00
2022-11-20T07:09:12.572Z,100583.59
2022-11-20T07:11:45.387Z,100585.31
2022-11-20T07:14:15.198Z,100581.19
2022-11-20T07:16:44.954Z,100576.50
2022-11-20T07:19:14.697Z,100567.06
2022-11-20T07:21:51.095Z,100575.31
2022-11-20T07:24:20.890Z,100567.56
2022-11-20T07:26:57.186Z,100597.97
2022-11-20T07:29:30.345Z,100615.94
2022-11-20T07:32:00.446Z,100586.38
2022-11-20T07:34:30.265Z,100549.44
2022-11-20T07:37:07.552Z,100595.59
2022-11-20T07:39:43.573Z,100599.56
2022-11-20T07:42:21.773Z,100620.13
2022-11-20T07:44:54.435Z,100606.09
2022-11-20T07:47:24.219Z,100588.41
2022-11-20T07:49:54.137Z,100594.00
2022-11-20T07:52:27.494Z,100603.84
2022-11-20T07:55:04.181Z,100616.56
2022-11-20T07:57:37.670Z,100601.81
2022-11-20T08:00:10.330Z,100590.06
2022-11-20T08:02:43.646Z,100607.72
2022-11-20T08:05:13.661Z,100592.06
2022-11-20T08:07:44.540Z,100602.13
2022-11-20T08:10:16.950Z,100605.78
2022-11-20T08:13:06.305Z,100608.66
2022-11-20T08:15:37.717Z,100601.22
2022-11-20T08:21:01.133Z,100614.34
2022-11-20T08:23:31.262Z,100626.56
2022-11-20T08:26:01.193Z,100620.41
2022-11-20T08:28:33.592Z,100618.28
2022-11-20T08:31:06.297Z,100621.09
2022-11-20T08:33:36.250Z,100597.34
2022-11-20T08:36:08.712Z,100578.00
2022-11-20T08:38:38.535Z,100598.84
2022-11-20T08:41:21.797Z,100590.72
2022-11-20T08:43:57.167Z,100593.03
2022-11-20T08:46:28.093Z,100593.91
2022-11-20T08:48:58.937Z,100605.09
2022-11-20T08:51:28.860Z,100588.00
2022-11-20T08:53:58.669Z,100595.03
2022-11-20T08:56:30.577Z,100578.09
2022-11-20T09:01:53.909Z,100598.22
2022-11-20T09:04:27.411Z,100604.72
2022-11-20T09:07:04.319Z,100609.09
2022-11-20T09:09:37.424Z,100584.44
2022-11-20T09:12:08.083Z,100580.84
2022-11-20T09:14:42.480Z,100602.81
2022-11-20T09:17:14.528Z,100604.50
2022-11-20T09:19:44.600Z,100598.59
2022-11-20T09:22:14.544Z,100601.59
2022-11-20T09:24:45.529Z,100610.44
2022-11-20T09:27:15.531Z,100604.72
2022-11-20T09:29:51.042Z,100606.34
2022-11-20T09:32:20.853Z,100594.34
2022-11-20T09:34:50.744Z,100583.53
2022-11-20T09:37:24.516Z,100606.38
2022-11-20T09:39:54.377Z,100555.66
2022-11-20T09:42:35.231Z,100580.06
2022-11-20T09:45:26.833Z,100616.72
2022-11-20T09:48:10.184Z,100612.69
2022-11-20T09:50:48.754Z,100611.16
2022-11-20T09:53:28.875Z,100602.25
2022-11-20T09:55:59.353Z,100589.69
2022-11-20T09:58:35.960Z,100603.31
2022-11-20T10:01:16.088Z,100602.00
2022-11-20T10:03:57.737Z,100598.00
2022-11-20T10:06:34.244Z,100615.00
2022-11-20T10:09:23.987Z,100612.91
2022-11-20T10:12:08.552Z,100606.66
2022-11-20T10:14:49.840Z,100585.97
2022-11-20T10:17:34.844Z,100601.91
2022-11-20T10:20:20.349Z,100586.06
2022-11-20T10:23:04.096Z,100585.53
2022-11-20T10:25:41.799Z,100563.31
2022-11-20T10:28:23.923Z,100595.22
2022-11-20T10:31:03.496Z,100600.25
2022-11-20T10:33:57.440Z,100591.59
2022-11-20T10:36:37.332Z,100586.25
2022-11-20T10:39:16.593Z,100575.66
2022-11-20T10:41:48.465Z,100564.50
2022-11-20T10:44:40.570Z,100568.41
2022-11-20T10:47:17.327Z,100553.31
2022-11-20T10:49:54.061Z,100536.09
2022-11-20T10:52:35.714Z,100550.13
2022-11-20T10:55:15.704Z,100554.44
2022-11-20T10:57:57.646Z,100555.00
2022-11-20T11:00:28.071Z,100502.75
2022-11-20T11:03:03.392Z,100541.06
2022-11-20T11:05:46.872Z,100554.13
2022-11-20T11:08:22.993Z,100552.72
2022-11-20T11:11:00.561Z,100546.84
2022-11-20T11:13:32.266Z,100498.25
2022-11-20T11:16:02.060Z,100531.59
2022-11-20T11:18:33.543Z,100522.41
2022-11-20T11:21:08.559Z,100536.03
2022-11-20T11:23:41.228Z,100514.63
2022-11-20T11:26:24.012Z,100526.22
2022-11-20T11:28:58.281Z,100514.72
2022-11-20T11:31:29.558Z,100519.75
2022-11-20T11:34:08.834Z,100465.06
2022-11-20T11:36:41.574Z,100508.31
2022-11-20T11:39:19.312Z,100508.41
2022-11-20T11:41:49.693Z,100489.91
2022-11-20T11:44:35.159Z,100504.56
2022-11-20T11:47:07.372Z,100490.47
2022-11-20T11:49:40.371Z,100493.09
2022-11-20T11:52:19.541Z,100496.06
2022-11-20T11:54:56.699Z,100504.34
2022-11-20T11:57:38.047Z,100495.94
2022-11-20T12:00:15.922Z,100506.91
2022-11-20T12:03:01.360Z,100499.06
2022-11-20T12:05:34.614Z,100477.69
2022-11-20T12:08:14.710Z,100471.78
2022-11-20T12:10:52.724Z,100493.09
2022-11-20T12:13:30.608Z,100497.47
2022-11-20T12:16:00.618Z,100490.25
2022-11-20T12:18:33.461Z,100449.56
2022-11-20T12:21:11.454Z,100479.63
2022-11-20T12:24:08.478Z,100460.78
2022-11-20T12:26:52.059Z,100450.84
2022-11-20T12:29:34.344Z,100468.59
2022-11-20T12:32:27.702Z,100444.88
2022-11-20T12:35:11.429Z,100461.94
2022-11-20T12:37:54.935Z,100446.72
2022-11-20T12:40:36.287Z,100452.75
2022-11-20T12:43:28.093Z,100464.25
2022-11-20T12:46:17.877Z,100461.94
2022-11-20T12:49:24.567Z,100471.09
2022-11-20T12:52:20.885Z,100425.06
2022-11-20T12:55:14.832Z,100455.00
2022-11-20T12:57:53.883Z,100461.84
2022-11-20T13:00:26.194Z,100442.97
2022-11-20T13:03:45.346Z,100427.09
2022-11-20T13:06:20.143Z,100449.81
2022-11-20T13:08:56.980Z,100418.84
2022-11-20T13:11:36.106Z,100424.97
2022-11-20T13:14:20.148Z,100426.81
2022-11-20T13:17:04.724Z,100432.44
2022-11-20T13:19:37.511Z,100437.81
2022-11-20T13:22:08.475Z,100439.91
2022-11-20T13:24:38.249Z,100440.59
2022-11-20T13:27:26.137Z,100442.63
2022-11-20T13:30:19.034Z,100438.75
2022-11-20T13:32:53.267Z,100444.19
2022-11-20T13:35:32.791Z,100437.28
2022-11-20T13:38:09.098Z,100440.91
2022-11-20T13:40:54.316Z,100434.00
2022-11-20T13:43:31.449Z,100436.16
2022-11-20T13:46:05.813Z,100382.97
2022-11-20T13:48:41.895Z,100417.03
2022-11-20T13:51:24.884Z,100426.56
2022-11-20T13:54:26.215Z,100401.69
2022-11-20T13:57:13.393Z,100384.69
2022-11-20T14:00:00.610Z,100385.00
2022-11-20T14:02:34.205Z,100409.63
2022-11-20T14:05:19.141Z,100403.13
2022-11-20T14:07:49.437Z,100386.59
2022-11-20T14:10:31.726Z,100368.00
2022-11-20T14:13:14.584Z,100373.00
2022-11-20T14:15:45.522Z,100394.63
2022-11-20T14:18:23.264Z,100392.91
2022-11-20T14:20:53.148Z,100397.69
2022-11-20T14:23:29.944Z,100393.56
2022-11-20T14:26:03.444Z,100391.50
2022-11-20T14:28:35.085Z,100384.81
2022-11-20T14:31:20.786Z,100389.84
2022-11-20T14:33:58.057Z,100385.41
2022-11-20T14:36:29.287Z,100383.69
2022-11-20T14:38:59.268Z,100369.88
2022-11-20T14:41:30.092Z,100363.22
2022-11-20T14:44:04.325Z,100380.38
2022-11-20T14:46:36.613Z,100369.03
2022-11-20T14:49:09.404Z,100330.94
2022-11-20T14:51:42.542Z,100341.66
2022-11-20T14:54:19.321Z,100340.81
2022-11-20T14:56:57.591Z,100333.09
2022-11-20T14:59:29.340Z,100334.63
2022-11-20T15:02:03.664Z,100363.88
2022-11-20T15:04:36.371Z,100342.31
2022-11-20T15:07:08.269Z,100341.44
2022-11-20T15:09:40.125Z,100349.31
2022-11-20T15:12:21.783Z,100318.91
2022-11-20T15:14:52.351Z,100341.22
2022-11-20T15:17:22.347Z,100321.72
2022-11-20T15:19:55.475Z,100308.97
2022-11-20T15:22:25.439Z,100329.41
2022-11-20T15:24:56.349Z,100342.22
2022-11-20T15:27:27.292Z,100329.41
2022-11-20T15:29:57.296Z,100327.53
2022-11-20T15:32:28.131Z,100317.19
2022-11-20T15:35:04.004Z,100327.47
2022-11-20T15:37:33.968Z,100311.66
2022-11-20T15:40:03.959Z,100308.19
2022-11-20T15:42:38.476Z,100318.97
2022-11-20T15:45:09.136Z,100299.19
2022-11-20T15:47:39.411Z,100307.91
2022-11-20T15:50:17.599Z,100308.97
2022-11-20T15:52:49.434Z,100310.41
2022-11-20T15:55:19.390Z,100297.53
2022-11-20T15:57:49.283Z,100276.03
2022-11-20T16:00:23.564Z,100268.00
2022-11-20T16:02:54.840Z,100243.28
2022-11-20T16:05:27.351Z,100263.94
2022-11-20T16:07:57.574Z,100269.53
2022-11-20T16:10:27.505Z,100266.94
2022-11-20T16:13:10.845Z,100270.72
2022-11-20T16:15:49.753Z,100266.94
2022-11-20T16:18:22.234Z,100262.16
2022-11-20T16:20:56.564Z,100252.19
2022-11-20T16:23:26.781Z,100235.25
2022-11-20T16:25:56.524Z,100245.44
2022-11-20T16:28:26.413Z,100248.69
2022-11-20T16:30:56.208Z,100256.28
2022-11-20T16:33:26.038Z,100256.28
2022-11-20T16:35:58.572Z,100257.88
2022-11-20T16:38:28.504Z,100249.25
2022-11-20T16:41:04.108Z,100237.31
2022-11-20T16:43:34.166Z,100246.50
2022-11-20T16:46:07.842Z,100253.47
2022-11-20T16:48:38.572Z,100244.94
2022-11-20T16:51:12.719Z,100246.59
2022-11-20T16:53:46.524Z,100228.28
2022-11-20T16:56:18.775Z,100232.66
2022-11-20T16:58:52.293Z,100230.13
2022-11-20T17:01:24.743Z,100225.06
2022-11-20T17:03:58.989Z,100209.59
2022-11-20T17:06:34.980Z,100208.38
2022-11-20T17:09:05.787Z,100202.31
2022-11-20T17:11:36.208Z,100190.63
2022-11-20T17:14:07.511Z,100199.41
2022-11-20T17:16:38.686Z,100215.81
2022-11-20T17:19:09.007Z,100209.38
2022-11-20T17:21:42.292Z,100197.16
2022-11-20T17:24:15.906Z,100216.84
2022-11-20T17:26:48.498Z,100209.16
2022-11-20T17:29:24.122Z,100206.94
2022-11-20T17:31:56.584Z,100202.13
2022-11-20T17:34:26.763Z,100198.72
2022-11-20T17:36:59.399Z,100177.88
2022-11-20T17:39:29.335Z,100183.06
2022-11-20T17:42:11.735Z,100166.03
2022-11-20T17:44:42.213Z,100165.38
2022-11-20T17:47:13.579Z,100169.38
2022-11-20T17:49:43.525Z,100137.41
2022-11-20T17:52:17.044Z,100158.09
2022-11-20T17:54:46.994Z,100114.34
2022-11-20T17:57:29.422Z,100158.31
2022-11-20T17:59:59.359Z,100157.13
2022-11-20T18:02:30.344Z,100146.00
2022-11-20T18:05:01.181Z,100161.50
2022-11-20T18:07:37.125Z,100147.19
2022-11-20T18:10:12.626Z,100164.31
2022-11-20T18:12:42.568Z,100147.41
2022-11-20T18:15:12.743Z,100152.59
2022-11-20T18:17:42.611Z,100149.09
2022-11-20T18:20:28.633Z,100125.28
2022-11-20T18:23:02.234Z,100146.69
2022-11-20T18:25:32.298Z,100139.03
2022-11-20T18:28:02.247Z,100142.94
2022-11-20T18:30:34.218Z,100083.25
2022-11-20T18:33:04.436Z,100133.41
2022-11-20T18:35:34.428Z,100118.03
2022-11-20T18:38:07.054Z,100118.91
2022-11-20T18:40:38.290Z,100128.09
2022-11-20T18:43:21.016Z,100120.38
2022-11-20T18:45:52.579Z,100111.75
2022-11-20T18:48:24.535Z,100097.56
2022-11-20T18:50:58.505Z,100078.25
2022-11-20T18:53:32.101Z,100078.31
2022-11-20T18:56:07.314Z,100055.56
2022-11-20T18:58:37.055Z,100081.34
2022-11-20T19:01:10.831Z,100088.03
2022-11-20T19:03:40.899Z,100072.75
2022-11-20T19:06:15.611Z,100078.25
2022-11-20T19:08:48.302Z,100029.75
2022-11-20T19:11:24.290Z,100079.56
2022-11-20T19:13:54.245Z,100079.47
2022-11-20T19:16:25.787Z,100075.59
2022-11-20T19:18:57.259Z,100068.81
2022-11-20T19:21:29.589Z,100070.66
2022-11-20T19:24:04.639Z,100069.97
2022-11-20T19:26:37.078Z,100005.25
2022-11-20T19:29:08.045Z,100073.25
2022-11-20T19:31:39.077Z,100069.88
2022-11-20T19:34:08.889Z,100042.59
2022-11-20T19:36:44.878Z,100022.75
2022-11-20T19:39:17.961Z,100047.56
2022-11-20T19:41:51.537Z,100025.59
2022-11-20T19:44:21.589Z,100024.31
2022-11-20T19:46:51.665Z,100042.31
2022-11-20T19:49:22.016Z,100029.94
2022-11-20T19:51:52.440Z,100044.06
2022-11-20T19:54:25.053Z,100040.06
2022-11-20T19:56:55.016Z,100046.47
2022-11-20T19:59:26.365Z,100026.19
2022-11-20T20:01:56.923Z,100008.34
2022-11-20T20:04:27.004Z,100015.22
2022-11-20T20:06:57.902Z,100015.88
2022-11-20T20:09:31.552Z,99975.88
2022-11-20T20:12:02.652Z,100018.72
2022-11-20T20:14:32.456Z,100014.31
2022-11-20T20:17:02.524Z,99949.22
2022-11-20T20:19:32.560Z,99939.03
2022-11-20T20:22:04.543Z,99995.88
2022-11-20T20:24:38.261Z,100007.94
2022-11-20T20:27:08.215Z,99995.75
2022-11-20T20:29:38.248Z,99982.63
2022-11-20T20:32:08.865Z,100005.63
2022-11-20T20:34:38.901Z,99939.63
2022-11-20T20:37:10.973Z,99942.16
2022-11-20T20:39:43.580Z,100001.72
2022-11-20T20:42:14.568Z,99995.28
2022-11-20T20:44:57.031Z,99988.91
2022-11-20T20:47:27.047Z,99983.84
2022-11-20T20:49:57.025Z,99984.91
2022-11-20T20:52:29.604Z,99978.84
2022-11-20T20:55:02.248Z,99937.13
2022-11-20T20:57:32.226Z,99970.84
2022-11-20T21:00:02.321Z,99964.13
2022-11-20T21:02:32.373Z,99966.91
2022-11-20T21:05:02.363Z,99968.50
2022-11-20T21:07:32.253Z,99941.91
2022-11-20T21:10:04.831Z,99960.00
2022-11-20T21:12:34.651Z,99920.38
2022-11-20T21:15:04.564Z,99952.19
2022-11-20T21:17:36.334Z,99945.63
2022-11-20T21:20:27.398Z,99947.44
2022-11-20T21:22:57.378Z,99907.75
2022-11-20T21:25:29.997Z,99941.22
2022-11-20T21:28:04.555Z,99934.59
2022-11-20T21:30:35.547Z,99872.34
2022-11-20T21:33:05.447Z,99924.41
2022-11-20T21:35:37.911Z,99936.72
2022-11-20T21:38:07.828Z,99925.19
2022-11-20T21:40:40.233Z,99921.56
2022-11-20T21:43:13.607Z,99923.38
2022-11-20T21:45:43.495Z,99824.78
2022-11-20T21:48:13.296Z,99888.63
2022-11-20T21:50:43.166Z,99845.69
2022-11-20T21:53:13.069Z,99859.38
2022-11-20T21:55:45.552Z,99916.22
2022-11-20T21:58:17.436Z,99896.72
2022-11-20T22:00:50.592Z,99886.00
2022-11-20T22:03:23.768Z,99910.78
2022-11-20T22:05:59.136Z,99900.72
2022-11-20T22:08:29.720Z,99895.63
2022-11-20T22:11:05.218Z,99893.44
2022-11-20T22:13:47.473Z,99900.19
2022-11-20T22:16:17.824Z,99893.31
2022-11-20T22:18:53.103Z,99898.72
2022-11-20T22:21:24.366Z,99898.34
2022-11-20T22:23:54.896Z,99891.75
2022-11-20T22:26:33.801Z,99878.78
2022-11-20T22:29:07.084Z,99830.38
2022-11-20T22:31:40.567Z,99891.00
2022-11-20T22:34:16.500Z,99899.47
2022-11-20T22:36:49.619Z,99892.72
2022-11-20T22:39:23.212Z,99888.09
2022-11-20T22:41:55.747Z,99889.75
2022-11-20T22:44:25.843Z,99872.09
2022-11-20T22:46:58.031Z,99787.13
2022-11-20T22:49:27.788Z,99853.50
2022-11-20T22:51:57.524Z,99905.63
2022-11-20T22:54:27.320Z,99911.09
2022-11-20T22:56:59.685Z,99885.72
2022-11-20T22:59:29.465Z,99905.34
2022-11-20T23:01:59.253Z,99906.72
2022-11-20T23:04:29.105Z,99904.22
2022-11-20T23:06:59.077Z,99915.31
2022-11-20T23:09:28.901Z,99920.50
2022-11-20T23:12:01.275Z,99916.84
2022-11-20T23:14:31.192Z,99906.78
2022-11-20T23:17:01.055Z,99914.13
2022-11-20T23:19:30.868Z,99863.13
2022-11-20T23:22:00.674Z,99920.31
2022-11-20T23:24:30.492Z,99914.75
2022-11-20T23:27:02.896Z,99913.94
2022-11-20T23:29:32.722Z,99905.00
2022-11-20T23:32:02.500Z,99847.03
2022-11-20T23:34:32.284Z,99914.63
2022-11-20T23:37:02.060Z,99854.66
2022-11-20T23:39:31.827Z,99904.28
2022-11-20T23:42:04.176Z,99920.53
2022-11-20T23:44:33.972Z,99890.59
2022-11-20T23:47:07.595Z,99846.34
2022-11-20T23:49:37.348Z,99921.75
2022-11-20T23:52:07.453Z,99920.97
2022-11-20T23:54:37.232Z,99910.94
2022-11-20T23:57:09.673Z,99836.22
2022-11-20T23:59:39.431Z,99903.31
